Time;durP1;ratioP1;P1;durP2;ratioP2;P2;SDS_P1;SDS_P2;PMS_P1;PMS_P2;Temp;Humidity;BMP_temperature;BMP_pressure;BME280_temperature;BME280_humidity;BME280_pressure;Samples;Min_cycle;Max_cycle;Signal;HPM_P1;HPM_P2
2021/12/25 00:02:24;;;;;;;109.50;47.10;;;;;;;0.12;100.00;99229.56;5091379;28;20199;-70
2021/12/25 00:04:51;;;;;;;100.00;45.40;;;;;;;0.13;100.00;99233.75;5090511;28;20203;-70
2021/12/25 00:07:18;;;;;;;115.70;47.80;;;;;;;0.08;100.00;99242.09;5089299;28;20202;-69
2021/12/25 00:09:45;;;;;;;112.87;50.00;;;;;;;0.05;100.00;99216.88;5090058;28;20242;-70
2021/12/25 00:12:13;;;;;;;124.33;50.17;;;;;;;-0.04;100.00;99203.38;5088097;28;20710;-70
2021/12/25 00:14:40;;;;;;;105.93;48.97;;;;;;;0.04;100.00;99226.09;5089809;28;20203;-70
2021/12/25 00:17:07;;;;;;;98.60;44.63;;;;;;;0.06;100.00;99223.63;5089097;28;20545;-70
2021/12/25 00:19:34;;;;;;;92.13;43.60;;;;;;;-0.06;100.00;99199.97;5088941;28;20211;-69
2021/12/25 00:22:01;;;;;;;81.03;38.63;;;;;;;-0.09;100.00;99205.00;5089138;28;20187;-70
2021/12/25 00:24:28;;;;;;;77.40;38.60;;;;;;;-0.17;100.00;99211.66;5088376;28;20191;-70
2021/12/25 00:27:01;;;;;;;80.63;38.00;;;;;;;-0.24;100.00;99209.06;5088965;28;20207;-70
2021/12/25 00:29:38;;;;;;;85.73;37.87;;;;;;;-0.26;100.00;99211.53;5088784;28;20195;-70
2021/12/25 00:32:32;;;;;;;87.63;42.03;;;;;;;-0.28;100.00;99213.22;5089103;28;20187;-70
2021/12/25 00:34:58;;;;;;;88.73;42.63;;;;;;;-0.29;100.00;99221.59;5088893;28;20240;-70
2021/12/25 00:37:26;;;;;;;88.57;42.57;;;;;;;-0.34;100.00;99228.25;5088866;28;20597;-70
2021/12/25 00:39:54;;;;;;;110.60;45.50;;;;;;;-0.34;100.00;99218.19;5089118;28;20226;-70
2021/12/25 00:42:22;;;;;;;86.70;42.17;;;;;;;-0.34;100.00;99223.22;5090168;28;20191;-69
2021/12/25 00:44:50;;;;;;;99.83;45.90;;;;;;;-0.29;100.00;99221.59;5090814;28;20199;-69
2021/12/25 00:47:17;;;;;;;101.10;45.60;;;;;;;-0.34;100.00;99213.16;5090856;28;20219;-69
2021/12/25 00:49:44;;;;;;;103.20;44.07;;;;;;;-0.33;100.00;99214.84;5091010;28;20586;-70
2021/12/25 00:52:11;;;;;;;106.07;44.97;;;;;;;-0.33;100.00;99219.03;5091172;28;20583;-70
2021/12/25 00:54:38;;;;;;;86.00;42.03;;;;;;;-0.32;100.00;99216.53;5090575;28;20578;-69
2021/12/25 00:57:05;;;;;;;94.47;43.43;;;;;;;-0.28;100.00;99207.31;5090676;28;20218;-70
2021/12/25 00:59:32;;;;;;;97.33;42.47;;;;;;;-0.22;100.00;99218.31;5090746;28;20659;-70
2021/12/25 01:02:00;;;;;;;91.23;41.27;;;;;;;-0.34;100.00;99207.28;5090886;28;20675;-69
2021/12/25 01:04:27;;;;;;;87.47;40.07;;;;;;;-0.33;100.00;99219.03;5090771;28;20199;-70
2021/12/25 01:06:55;;;;;;;77.87;38.47;;;;;;;-0.38;100.00;99208.91;5085367;28;20215;-69
2021/12/25 01:09:22;;;;;;;71.77;35.27;;;;;;;-0.31;100.00;99210.66;5089282;28;20214;-69
2021/12/25 01:11:50;;;;;;;62.97;34.03;;;;;;;-0.34;100.00;99212.31;5090327;28;20733;-69
2021/12/25 01:14:27;;;;;;;75.20;33.03;;;;;;;-0.26;100.00;99216.56;5090746;28;20206;-69
2021/12/25 01:25:31;;;;;;;72.87;33.50;;;;;;;-0.23;100.00;99211.59;5078420;28;20200;-70
2021/12/25 01:30:51;;;;;;;68.37;32.50;;;;;;;-0.20;100.00;99210.78;5092034;28;20574;-70
2021/12/25 01:38:58;;;;;;;91.93;40.20;;;;;;;-0.52;100.00;99189.47;5077848;28;20192;-69
2021/12/25 01:41:54;;;;;;;87.70;39.80;;;;;;;-0.49;100.00;99192.00;5094050;28;20195;-70
2021/12/25 01:49:47;;;;;;;113.70;45.07;;;;;;;-0.52;100.00;99218.00;5093777;28;20247;-70
2021/12/25 01:52:15;;;;;;;100.27;44.47;;;;;;;-0.59;100.00;99222.13;5093956;28;20206;-70
2021/12/25 01:54:42;;;;;;;95.13;43.17;;;;;;;-0.52;100.00;99217.16;5093845;28;20681;-70
2021/12/25 01:57:10;;;;;;;115.77;42.80;;;;;;;-0.58;100.00;99195.25;5093719;28;20195;-70
2021/12/25 01:59:36;;;;;;;92.17;43.77;;;;;;;-0.52;100.00;99211.28;5093604;28;20196;-70
2021/12/25 02:02:04;;;;;;;97.73;43.63;;;;;;;-0.55;100.00;99202.88;5093557;28;20202;-69
2021/12/25 02:04:31;;;;;;;99.67;42.20;;;;;;;-0.56;100.00;99191.97;5092561;28;20203;-70
2021/12/25 02:06:57;;;;;;;97.93;43.10;;;;;;;-0.53;100.00;99196.16;5092059;28;20677;-70
2021/12/25 02:09:27;;;;;;;123.13;48.23;;;;;;;-0.57;100.00;99196.97;5093609;28;20225;-69
2021/12/25 02:11:54;;;;;;;119.40;45.03;;;;;;;-0.67;100.00;99205.22;5093182;28;20195;-69
2021/12/25 02:14:21;;;;;;;107.97;44.77;;;;;;;-0.61;100.00;99196.06;5093263;28;20202;-69
2021/12/25 02:16:55;;;;;;;93.53;41.90;;;;;;;-0.55;100.00;99198.66;5090722;28;20286;-70
2021/12/25 02:19:33;;;;;;;89.10;41.20;;;;;;;-0.49;100.00;99197.91;5091706;28;20690;-70
2021/12/25 02:22:03;;;;;;;81.83;38.97;;;;;;;-0.50;100.00;99193.69;5090894;28;20299;-70
2021/12/25 02:24:30;;;;;;;85.93;37.13;;;;;;;-0.40;100.00;99192.94;5091330;28;20301;-69
2021/12/25 02:26:58;;;;;;;70.73;34.47;;;;;;;-0.37;100.00;99194.66;5090750;28;20203;-70
2021/12/25 02:29:25;;;;;;;74.77;35.60;;;;;;;-0.36;100.00;99202.22;5091322;28;20202;-70
2021/12/25 02:31:54;;;;;;;52.30;31.07;;;;;;;-0.35;100.00;99203.91;5091477;28;20564;-70
2021/12/25 02:34:21;;;;;;;60.60;31.40;;;;;;;-0.34;100.00;99193.00;5091243;28;20199;-70
2021/12/25 02:36:48;;;;;;;55.77;29.60;;;;;;;-0.35;100.00;99186.28;5091873;28;20199;-70
2021/12/25 02:39:16;;;;;;;46.27;26.77;;;;;;;-0.39;100.00;99189.63;5092475;28;20191;-70
2021/12/25 02:41:44;;;;;;;59.57;30.20;;;;;;;-0.39;100.00;99192.13;5090922;28;20199;-69
2021/12/25 02:44:11;;;;;;;72.87;33.27;;;;;;;-0.53;100.00;99181.06;5090598;28;20225;-69
2021/12/25 02:46:38;;;;;;;65.33;32.87;;;;;;;-0.50;100.00;99196.19;5090832;28;20594;-69
2021/12/25 02:49:09;;;;;;;73.23;35.43;;;;;;;-0.55;100.00;99173.47;5090716;28;20202;-69
2021/12/25 02:51:36;;;;;;;81.07;32.73;;;;;;;-0.52;100.00;99177.72;5090849;28;20712;-69
2021/12/25 02:54:03;;;;;;;54.97;29.50;;;;;;;-0.48;100.00;99192.00;5090851;28;20390;-70
2021/12/25 02:56:31;;;;;;;53.47;29.87;;;;;;;-0.47;100.00;99181.13;5092057;28;20198;-69
2021/12/25 02:58:58;;;;;;;52.57;29.73;;;;;;;-0.48;100.00;99179.44;5092821;28;20208;-69
2021/12/25 03:01:25;;;;;;;54.90;29.37;;;;;;;-0.40;100.00;99198.00;5089976;28;20202;-69
2021/12/25 03:03:52;;;;;;;56.57;29.77;;;;;;;-0.40;100.00;99189.59;5089722;28;20641;-69
2021/12/25 03:06:19;;;;;;;60.80;29.33;;;;;;;-0.55;100.00;99190.28;5091908;28;20242;-69
2021/12/25 03:08:46;;;;;;;73.93;32.03;;;;;;;-0.67;100.00;99202.72;5092396;28;20195;-70
2021/12/25 03:11:14;;;;;;;65.83;31.03;;;;;;;-0.71;100.00;99198.50;5092091;28;20223;-70
2021/12/25 03:13:55;;;;;;;55.90;29.20;;;;;;;-0.72;100.00;99201.84;5092342;28;20249;-70
2021/12/25 03:16:22;;;;;;;50.73;27.77;;;;;;;-0.68;100.00;99213.63;5091978;28;20195;-70
2021/12/25 03:18:52;;;;;;;48.73;25.57;;;;;;;-0.68;100.00;99211.13;5092297;28;20200;-70
2021/12/25 03:21:20;;;;;;;56.60;28.10;;;;;;;-0.74;100.00;99216.06;5092144;28;20195;-70
2021/12/25 03:23:48;;;;;;;61.47;28.57;;;;;;;-0.66;100.00;99210.28;5092301;28;20583;-70
2021/12/25 03:26:16;;;;;;;46.73;26.57;;;;;;;-0.59;100.00;99216.25;5091941;28;20587;-70
2021/12/25 03:28:45;;;;;;;52.07;27.17;;;;;;;-0.54;100.00;99204.53;5091887;28;20195;-70
2021/12/25 03:31:16;;;;;;;45.17;26.23;;;;;;;-0.50;100.00;99206.28;5091951;28;20203;-69
2021/12/25 03:33:44;;;;;;;51.93;26.80;;;;;;;-0.54;100.00;99219.66;5091966;28;20261;-69
2021/12/25 03:36:12;;;;;;;60.37;31.03;;;;;;;-0.62;100.00;99224.63;5091875;28;20210;-70
2021/12/25 03:38:39;;;;;;;71.93;34.43;;;;;;;-0.59;100.00;99229.69;5091648;28;20567;-70
2021/12/25 03:41:06;;;;;;;73.13;34.20;;;;;;;-0.60;100.00;99219.59;5091263;28;20196;-69
2021/12/25 03:43:34;;;;;;;59.67;30.67;;;;;;;-0.57;100.00;99224.66;5091573;28;20238;-70
2021/12/25 03:46:02;;;;;;;57.50;30.10;;;;;;;-0.52;100.00;99233.13;5091628;28;20191;-70
2021/12/25 03:48:46;;;;;;;65.87;29.00;;;;;;;-0.49;100.00;99223.06;5091319;28;20203;-69
2021/12/25 03:59:31;;;;;;;57.67;28.53;;;;;;;-0.52;100.00;99231.41;5090222;28;20290;-70
2021/12/25 04:02:05;;;;;;;61.93;28.83;;;;;;;-0.50;100.00;99231.44;5090427;28;20574;-70
2021/12/25 04:04:36;;;;;;;70.27;31.33;;;;;;;-0.50;100.00;99221.38;5089131;28;20203;-70
2021/12/25 04:07:09;;;;;;;63.43;32.63;;;;;;;-0.47;100.00;99216.38;5091419;28;20626;-70
2021/12/25 04:09:38;;;;;;;79.50;33.60;;;;;;;-0.44;100.00;99229.00;5090857;28;20195;-70
2021/12/25 04:12:09;;;;;;;60.73;30.17;;;;;;;-0.56;100.00;99206.22;5091047;28;20210;-69
2021/12/25 04:14:36;;;;;;;59.90;28.43;;;;;;;-0.48;100.00;99221.41;5090718;28;20563;-70
2021/12/25 04:17:05;;;;;;;51.70;27.97;;;;;;;-0.47;100.00;99226.44;5091295;28;20679;-69
2021/12/25 04:19:32;;;;;;;54.43;29.30;;;;;;;-0.51;100.00;99234.78;5091036;28;20556;-70
2021/12/25 04:22:02;;;;;;;61.97;31.33;;;;;;;-0.51;100.00;99239.81;5091302;28;20668;-70
2021/12/25 04:24:33;;;;;;;53.97;27.53;;;;;;;-0.51;100.00;99234.78;5089822;28;20226;-70
2021/12/25 04:26:59;;;;;;;62.20;31.27;;;;;;;-0.46;100.00;99218.06;5089281;28;20614;-70
2021/12/25 04:29:41;;;;;;;59.03;29.27;;;;;;;-0.45;100.00;99224.78;5089355;28;20192;-69
2021/12/25 04:32:47;;;;;;;53.87;29.07;;;;;;;-0.52;100.00;99230.59;5089260;28;20260;-70
2021/12/25 05:02:52;;;;;;;60.07;31.30;;;;;;;-0.73;100.00;99243.75;5094929;28;20270;-69
2021/12/25 05:05:22;;;;;;;57.60;29.83;;;;;;;-0.86;100.00;99228.50;5092682;28;20563;-69
2021/12/25 05:07:48;;;;;;;60.50;31.87;;;;;;;-0.66;100.00;99269.84;5094553;28;20221;-70
2021/12/25 05:10:15;;;;;;;58.27;30.43;;;;;;;-0.69;100.00;99269.81;5094290;28;20227;-69
2021/12/25 05:12:42;;;;;;;58.67;30.17;;;;;;;-0.65;100.00;99281.63;5094604;28;20196;-69
2021/12/25 05:15:10;;;;;;;59.17;28.70;;;;;;;-0.68;100.00;99284.09;5094333;28;20195;-70
2021/12/25 05:17:37;;;;;;;63.63;31.37;;;;;;;-0.65;100.00;99285.00;5094448;28;20674;-70
2021/12/25 05:20:05;;;;;;;63.53;32.13;;;;;;;-0.79;100.00;99268.00;5094549;28;20565;-69
2021/12/25 05:22:33;;;;;;;66.07;33.63;;;;;;;-0.76;100.00;99278.13;5094422;28;20203;-70
2021/12/25 05:25:00;;;;;;;73.93;35.93;;;;;;;-0.66;100.00;99274.88;5094175;28;20203;-69
2021/12/25 05:27:27;;;;;;;111.03;46.40;;;;;;;-0.65;100.00;99271.56;5094247;28;20211;-70
2021/12/25 05:29:54;;;;;;;93.53;41.57;;;;;;;-0.67;100.00;99278.22;5094283;28;20226;-70
2021/12/25 05:32:21;;;;;;;81.93;41.53;;;;;;;-0.64;100.00;99283.28;5093866;28;20205;-70
2021/12/25 05:34:48;;;;;;;108.70;47.90;;;;;;;-0.59;100.00;99277.50;5094494;28;20686;-71
2021/12/25 05:37:15;;;;;;;154.23;60.63;;;;;;;-0.59;100.00;99281.69;5093953;28;20686;-71
2021/12/25 05:39:50;;;;;;;167.03;59.63;;;;;;;-0.60;100.00;99283.38;5094263;28;20675;-70
2021/12/25 05:42:18;;;;;;;158.43;61.03;;;;;;;-0.62;100.00;99286.69;5093980;28;20191;-71
2021/12/25 05:44:45;;;;;;;119.60;49.50;;;;;;;-0.73;100.00;99283.19;5094060;28;20200;-71
2021/12/25 05:47:12;;;;;;;103.33;44.27;;;;;;;-0.81;100.00;99264.63;5093663;28;20214;-70
2021/12/25 05:49:39;;;;;;;198.87;75.87;;;;;;;-0.64;100.00;99276.59;5094038;28;20202;-71
2021/12/25 05:52:06;;;;;;;137.37;59.67;;;;;;;-0.58;100.00;99293.44;5093283;28;20677;-71
2021/12/25 05:54:33;;;;;;;110.10;49.23;;;;;;;-0.61;100.00;99308.50;5093897;28;20253;-71
2021/12/25 05:57:01;;;;;;;88.57;42.73;;;;;;;-0.68;100.00;99300.03;5093037;28;20199;-71
2021/12/25 05:59:28;;;;;;;67.50;37.00;;;;;;;-0.62;100.00;99309.34;5092547;28;20212;-72
2021/12/25 06:01:55;;;;;;;69.80;31.77;;;;;;;-0.60;100.00;99310.19;5093184;28;20191;-71
2021/12/25 06:04:22;;;;;;;51.47;28.63;;;;;;;-0.60;100.00;99306.03;5093075;28;20196;-70
2021/12/25 06:06:49;;;;;;;49.70;26.57;;;;;;;-0.61;100.00;99293.41;5093238;28;20702;-71
2021/12/25 06:09:16;;;;;;;44.67;26.60;;;;;;;-0.68;100.00;99297.50;5093386;28;20209;-71
2021/12/25 06:11:45;;;;;;;51.40;26.90;;;;;;;-0.60;100.00;99302.66;5093244;28;20226;-71
2021/12/25 06:14:18;;;;;;;64.63;29.67;;;;;;;-0.65;100.00;99322.75;5093604;28;20234;-72
2021/12/25 06:16:46;;;;;;;55.57;30.27;;;;;;;-0.81;100.00;99327.56;5090440;28;20264;-72
2021/12/25 06:19:13;;;;;;;43.50;26.17;;;;;;;-0.77;100.00;99322.56;5093072;28;20198;-71
2021/12/25 06:21:40;;;;;;;51.70;28.30;;;;;;;-0.72;100.00;99312.56;5092865;28;20195;-72
2021/12/25 06:24:07;;;;;;;50.53;28.13;;;;;;;-0.61;100.00;99308.50;5093229;28;20198;-72
2021/12/25 06:26:36;;;;;;;59.63;29.67;;;;;;;-0.56;100.00;99304.38;5092746;28;20207;-71
2021/12/25 06:29:04;;;;;;;54.30;31.60;;;;;;;-0.47;100.00;99304.50;5093101;28;20196;-72
2021/12/25 06:31:32;;;;;;;56.77;29.77;;;;;;;-0.38;100.00;99307.13;5092717;28;20203;-72
2021/12/25 06:33:59;;;;;;;62.90;34.47;;;;;;;-0.32;100.00;99304.66;5093111;28;20590;-72
2021/12/25 06:36:26;;;;;;;79.70;34.47;;;;;;;-0.28;100.00;99308.91;5092557;28;20191;-71
2021/12/25 06:38:53;;;;;;;90.37;38.10;;;;;;;-0.23;100.00;99316.53;5092825;28;20203;-72
2021/12/25 06:41:20;;;;;;;80.27;33.70;;;;;;;-0.24;100.00;99315.69;5092796;28;20195;-72
2021/12/25 06:43:47;;;;;;;76.27;34.87;;;;;;;-0.26;100.00;99319.84;5092506;28;20199;-72
2021/12/25 06:46:14;;;;;;;65.17;30.50;;;;;;;-0.17;100.00;99327.53;5093170;28;20679;-72
2021/12/25 06:48:42;;;;;;;62.07;28.73;;;;;;;-0.13;100.00;99338.50;5092713;28;20211;-72
2021/12/25 06:51:10;;;;;;;73.93;32.67;;;;;;;-0.17;100.00;99345.16;5091757;28;20257;-71
2021/12/25 06:53:37;;;;;;;67.33;31.97;;;;;;;-0.08;100.00;99332.66;5091694;28;20575;-72
2021/12/25 06:56:04;;;;;;;63.70;32.23;;;;;;;-0.08;100.00;99322.59;5092233;28;20199;-72
2021/12/25 06:58:31;;;;;;;69.17;33.77;;;;;;;-0.03;100.00;99323.47;5092343;28;20196;-72
2021/12/25 07:00:58;;;;;;;69.53;35.20;;;;;;;0.04;100.00;99331.09;5092219;28;20680;-71
2021/12/25 07:03:25;;;;;;;80.50;35.70;;;;;;;0.05;100.00;99327.75;5092373;28;20195;-71
2021/12/25 07:05:54;;;;;;;110.47;41.73;;;;;;;0.12;100.00;99315.25;5091961;28;20206;-71
2021/12/25 07:08:21;;;;;;;112.50;44.77;;;;;;;0.19;100.00;99311.09;5092739;28;20211;-72
2021/12/25 07:10:48;;;;;;;112.03;49.43;;;;;;;0.16;100.00;99332.09;5092009;28;20710;-71
2021/12/25 07:13:18;;;;;;;125.37;49.70;;;;;;;0.22;100.00;99336.34;5091855;28;20191;-72
2021/12/25 07:15:45;;;;;;;101.23;48.33;;;;;;;0.26;100.00;99343.09;5091936;28;20195;-71
2021/12/25 07:18:12;;;;;;;93.33;43.60;;;;;;;0.25;100.00;99351.50;5092180;28;20663;-72
2021/12/25 07:20:42;;;;;;;80.67;40.67;;;;;;;0.34;100.00;99341.50;5092245;28;20570;-72
2021/12/25 07:23:10;;;;;;;86.93;40.67;;;;;;;0.42;100.00;99352.50;5092180;28;20582;-72
2021/12/25 07:25:37;;;;;;;76.77;37.30;;;;;;;0.49;100.00;99364.31;5092064;28;20199;-72
2021/12/25 07:28:04;;;;;;;77.17;39.60;;;;;;;0.53;100.00;99373.63;5091762;28;20602;-72
2021/12/25 07:30:32;;;;;;;64.93;36.70;;;;;;;0.60;100.00;99370.31;5092053;28;20195;-72
2021/12/25 07:32:58;;;;;;;60.17;33.73;;;;;;;0.65;100.00;99363.63;5090984;28;20205;-72
2021/12/25 07:35:26;;;;;;;67.53;33.77;;;;;;;0.76;100.00;99367.09;5088524;28;20195;-72
2021/12/25 07:37:52;;;;;;;62.83;36.43;;;;;;;0.75;100.00;99342.69;5091694;28;20274;-71
2021/12/25 07:40:21;;;;;;;66.50;35.83;;;;;;;0.88;100.00;99362.16;5091924;28;20585;-72
2021/12/25 07:42:48;;;;;;;77.07;37.93;;;;;;;0.98;100.00;99368.97;5091395;28;20199;-72
2021/12/25 07:45:15;;;;;;;77.17;38.47;;;;;;;1.09;100.00;99365.66;5091211;28;20192;-72
2021/12/25 07:47:49;;;;;;;77.50;39.90;;;;;;;1.21;100.00;99368.25;5091531;28;20211;-73
2021/12/25 07:50:16;;;;;;;81.03;41.47;;;;;;;1.33;100.00;99370.88;5090342;28;20202;-73
2021/12/25 07:52:43;;;;;;;95.17;42.87;;;;;;;1.42;100.00;99374.28;5090234;28;20203;-73
2021/12/25 07:55:10;;;;;;;59.07;32.43;;;;;;;1.59;100.00;99364.28;5091243;28;20582;-73
2021/12/25 07:57:39;;;;;;;81.00;37.20;;;;;;;1.57;100.00;99350.81;5090948;28;20196;-73
2021/12/25 08:00:09;;;;;;;84.67;38.27;;;;;;;1.81;100.00;99361.00;5091050;28;20659;-72
2021/12/25 08:02:36;;;;;;;59.40;33.07;;;;;;;2.03;100.00;99367.88;5091190;28;20202;-73
2021/12/25 08:05:04;;;;;;;54.63;33.60;;;;;;;2.16;100.00;99360.31;5091228;28;20675;-73
2021/12/25 08:07:31;;;;;;;59.60;32.80;;;;;;;2.31;100.00;99352.75;5091264;28;20720;-73
2021/12/25 08:10:11;;;;;;;63.07;32.20;;;;;;;2.45;100.00;99357.00;5091096;28;20241;-73
2021/12/25 08:12:40;;;;;;;72.80;32.57;;;;;;;2.62;100.00;99354.47;5091196;28;20282;-72
2021/12/25 08:15:08;;;;;;;70.13;32.40;;;;;;;2.76;100.00;99360.41;5091133;28;20587;-72
2021/12/25 08:17:36;;;;;;;66.93;31.83;;;;;;;2.87;100.00;99361.25;5090608;28;20199;-72
2021/12/25 08:20:03;;;;;;;73.87;34.53;;;;;;;3.01;100.00;99358.69;5091062;28;20200;-72
2021/12/25 08:22:30;;;;;;;59.87;32.80;;;;;;;3.25;100.00;99368.81;5090884;28;20671;-73
2021/12/25 08:24:57;;;;;;;63.43;29.93;;;;;;;3.37;100.00;99363.72;5090554;28;20195;-73
2021/12/25 08:27:24;;;;;;;53.53;28.80;;;;;;;3.43;100.00;99342.59;5090375;28;20191;-73
2021/12/25 08:29:52;;;;;;;48.53;25.90;;;;;;;3.58;100.00;99345.09;5091177;28;20206;-73
2021/12/25 08:32:19;;;;;;;43.57;26.03;;;;;;;3.64;100.00;99355.22;5090675;28;20195;-72
2021/12/25 08:34:46;;;;;;;43.73;25.60;;;;;;;3.74;100.00;99344.19;5090805;28;20204;-72
2021/12/25 08:37:13;;;;;;;44.50;25.47;;;;;;;3.79;100.00;99347.53;5090706;28;20203;-72
2021/12/25 08:39:41;;;;;;;37.73;24.43;;;;;;;3.86;100.00;99349.22;5090838;28;20199;-72
2021/12/25 08:42:09;;;;;;;55.07;27.00;;;;;;;3.87;100.00;99342.44;5091098;28;20560;-73
2021/12/25 08:44:41;;;;;;;51.67;27.40;;;;;;;3.94;100.00;99352.53;5090463;28;20274;-72
2021/12/25 08:47:11;;;;;;;50.60;28.20;;;;;;;4.00;100.00;99347.47;5090145;28;20652;-73
2021/12/25 08:49:40;;;;;;;46.57;27.53;;;;;;;4.05;100.00;99327.97;5089002;28;20226;-72
2021/12/25 08:52:09;;;;;;;38.57;24.70;;;;;;;4.25;100.00;99332.94;5090648;28;20203;-73
2021/12/25 08:54:37;;;;;;;41.63;24.67;;;;;;;4.44;100.00;99333.66;5089178;28;20195;-72
2021/12/25 08:57:06;;;;;;;46.03;25.87;;;;;;;4.60;100.00;99340.31;5091071;28;20659;-73
2021/12/25 08:59:34;;;;;;;47.93;28.10;;;;;;;4.83;100.00;99337.59;5090639;28;20201;-72
2021/12/25 09:02:04;;;;;;;45.30;26.53;;;;;;;4.91;100.00;99311.28;5090902;28;20616;-73
2021/12/25 09:04:33;;;;;;;44.60;27.27;;;;;;;5.17;100.00;99322.03;5090380;28;20238;-72
2021/12/25 09:07:00;;;;;;;46.93;26.83;;;;;;;5.25;100.00;99316.91;5090551;28;20206;-73
2021/12/25 09:09:26;;;;;;;54.70;27.87;;;;;;;5.39;100.00;99317.59;5090077;28;20207;-71
2021/12/25 09:11:53;;;;;;;51.50;27.93;;;;;;;5.44;100.00;99308.22;5090722;28;20671;-73
2021/12/25 09:14:21;;;;;;;53.27;28.10;;;;;;;5.51;100.00;99309.84;5090404;28;20197;-72
2021/12/25 09:16:48;;;;;;;51.13;29.67;;;;;;;5.67;100.00;99311.34;5090105;28;20933;-72
2021/12/25 09:19:15;;;;;;;55.03;31.20;;;;;;;5.75;100.00;99308.72;5090556;28;20191;-72
2021/12/25 09:21:43;;;;;;;53.40;30.53;;;;;;;5.80;100.00;99319.66;5090124;28;20199;-72
2021/12/25 09:24:10;;;;;;;51.30;30.50;;;;;;;5.93;100.00;99313.59;5090729;28;20568;-73
2021/12/25 09:26:37;;;;;;;60.73;31.53;;;;;;;5.98;100.00;99306.72;5090167;28;20205;-72
2021/12/25 09:29:04;;;;;;;52.87;30.40;;;;;;;6.14;100.00;99303.13;5090341;28;20212;-73
2021/12/25 09:31:32;;;;;;;51.13;28.30;;;;;;;6.21;100.00;99306.41;5090514;28;20578;-73
2021/12/25 09:33:59;;;;;;;55.27;28.70;;;;;;;6.27;99.75;99294.44;5089827;28;20213;-73
2021/12/25 09:36:26;;;;;;;47.57;27.73;;;;;;;6.16;98.00;99280.19;5090799;28;20201;-73
2021/12/25 09:38:55;;;;;;;53.70;29.73;;;;;;;6.21;98.90;99292.00;5093985;28;20575;-73
2021/12/25 09:41:22;;;;;;;55.13;28.90;;;;;;;6.25;97.65;99287.69;5088764;28;20746;-73
2021/12/25 09:43:49;;;;;;;48.33;29.57;;;;;;;6.28;97.32;99285.94;5092897;28;20209;-72
2021/12/25 09:46:17;;;;;;;50.50;30.87;;;;;;;6.38;97.26;99278.16;5093831;28;20203;-73
2021/12/25 09:48:44;;;;;;;59.97;34.13;;;;;;;6.45;95.45;99270.44;5093068;28;20712;-73
2021/12/25 09:51:11;;;;;;;56.93;32.53;;;;;;;6.53;94.46;99270.28;5093748;28;20282;-73
2021/12/25 09:53:38;;;;;;;73.30;38.13;;;;;;;6.61;93.86;99264.22;5094173;28;20207;-73
2021/12/25 09:56:07;;;;;;;63.03;35.87;;;;;;;6.61;93.44;99269.31;5093347;28;20214;-73
2021/12/25 09:58:34;;;;;;;76.20;37.47;;;;;;;6.66;93.00;99257.34;5093393;28;20203;-73
2021/12/25 10:01:01;;;;;;;65.40;35.17;;;;;;;6.78;93.05;99262.25;5093134;28;20191;-73
2021/12/25 10:03:45;;;;;;;57.20;33.03;;;;;;;6.82;92.48;99247.72;5093540;28;20199;-73
2021/12/25 10:06:29;;;;;;;59.63;33.73;;;;;;;6.91;92.34;99246.72;5093645;28;20195;-73
2021/12/25 10:08:56;;;;;;;58.43;34.33;;;;;;;7.03;92.12;99246.50;5093183;28;20222;-73
2021/12/25 10:11:26;;;;;;;58.43;33.80;;;;;;;7.14;91.35;99244.59;5093211;28;20721;-73
2021/12/25 10:13:55;;;;;;;63.77;37.50;;;;;;;7.25;90.50;99243.53;5090223;28;20556;-73
2021/12/25 10:16:24;;;;;;;58.13;32.57;;;;;;;7.39;90.20;99244.09;5093466;28;20195;-73
2021/12/25 10:18:51;;;;;;;57.70;33.47;;;;;;;7.48;89.28;99244.78;5092340;28;20191;-73
2021/12/25 10:21:22;;;;;;;65.93;36.20;;;;;;;7.54;89.77;99244.66;5093325;28;20237;-73
2021/12/25 10:24:07;;;;;;;70.93;35.87;;;;;;;7.61;88.83;99238.56;5093076;28;20205;-73
2021/12/25 10:26:38;;;;;;;58.87;32.63;;;;;;;7.73;88.00;99238.28;5093401;28;20695;-74
2021/12/25 10:29:21;;;;;;;58.73;33.70;;;;;;;7.78;87.62;99228.84;5092698;28;20211;-72
2021/12/25 10:31:49;;;;;;;60.90;33.63;;;;;;;7.76;88.03;99220.34;5091929;28;20205;-73
2021/12/25 10:34:18;;;;;;;75.27;38.33;;;;;;;7.89;86.64;99239.63;5092580;28;20211;-73
2021/12/25 10:36:45;;;;;;;69.63;37.27;;;;;;;7.89;85.33;99217.50;5093222;28;20266;-73
2021/12/25 10:39:15;;;;;;;65.17;33.70;;;;;;;8.03;85.29;99229.97;5092650;28;20201;-73
2021/12/25 10:41:53;;;;;;;64.03;34.37;;;;;;;8.15;84.93;99224.56;5092113;28;20248;-73
2021/12/25 10:44:23;;;;;;;59.67;33.27;;;;;;;8.22;83.59;99225.28;5090139;28;20969;-73
2021/12/25 10:46:54;;;;;;;67.53;35.47;;;;;;;8.30;83.16;99213.22;5092620;28;20701;-73
2021/12/25 10:49:22;;;;;;;63.47;33.93;;;;;;;8.43;82.29;99217.97;5091854;28;20246;-73
2021/12/25 10:51:49;;;;;;;72.60;37.90;;;;;;;8.47;82.62;99220.44;5092505;28;20211;-73
2021/12/25 10:54:18;;;;;;;58.83;32.00;;;;;;;8.53;80.84;99217.75;5092445;28;20237;-73
2021/12/25 10:56:48;;;;;;;62.30;34.93;;;;;;;8.59;81.08;99217.59;5092402;28;20264;-73
2021/12/25 10:59:18;;;;;;;66.47;37.70;;;;;;;8.63;81.35;99216.63;5092087;28;20191;-73
2021/12/25 11:01:47;;;;;;;63.00;36.50;;;;;;;8.69;80.93;99209.66;5092641;28;20211;-74
2021/12/25 11:04:29;;;;;;;63.07;36.73;;;;;;;8.79;81.59;99202.59;5092141;28;20220;-74
2021/12/25 11:06:57;;;;;;;63.47;33.27;;;;;;;8.86;81.46;99210.06;5092495;28;20279;-74
2021/12/25 11:09:25;;;;;;;58.80;34.77;;;;;;;8.85;80.73;99189.66;5092089;28;20223;-73
2021/12/25 11:12:20;;;;;;;61.03;36.43;;;;;;;8.89;80.43;99193.78;5092166;28;20195;-74
2021/12/25 11:14:48;;;;;;;61.67;35.63;;;;;;;8.96;80.85;99195.31;5092261;28;20666;-74
2021/12/25 11:17:25;;;;;;;68.73;36.50;;;;;;;8.97;81.23;99186.78;5092260;28;20675;-74
2021/12/25 11:19:59;;;;;;;60.83;35.23;;;;;;;9.01;80.26;99172.19;5092083;28;20628;-74
2021/12/25 11:22:27;;;;;;;68.10;36.40;;;;;;;9.12;81.46;99172.72;5091793;28;20217;-73
2021/12/25 11:24:57;;;;;;;61.77;35.47;;;;;;;9.18;81.74;99173.38;5092332;28;20663;-74
2021/12/25 11:27:25;;;;;;;69.50;36.70;;;;;;;9.24;81.25;99170.66;5091904;28;20645;-73
2021/12/25 11:29:53;;;;;;;64.53;33.70;;;;;;;9.21;82.24;99160.50;5091769;28;20586;-74
2021/12/25 11:32:21;;;;;;;54.77;31.77;;;;;;;9.34;82.68;99166.09;5091904;28;20191;-74
2021/12/25 11:34:49;;;;;;;58.23;32.57;;;;;;;9.37;82.95;99155.81;5091626;28;20574;-74
2021/12/25 11:37:17;;;;;;;55.87;31.20;;;;;;;9.43;83.02;99161.56;5091470;28;20263;-74
2021/12/25 11:39:44;;;;;;;49.67;28.50;;;;;;;9.49;82.44;99161.41;5090451;28;20327;-73
2021/12/25 11:42:12;;;;;;;48.83;29.50;;;;;;;9.47;83.24;99165.72;5090658;28;20209;-73
2021/12/25 11:44:45;;;;;;;47.93;27.77;;;;;;;9.46;82.48;99156.38;5091218;28;20203;-73
2021/12/25 11:47:32;;;;;;;51.47;29.70;;;;;;;9.56;82.70;99151.81;5091547;28;20199;-73
2021/12/25 11:50:01;;;;;;;50.37;27.83;;;;;;;9.61;82.53;99157.63;5091574;28;20215;-73
2021/12/25 11:52:34;;;;;;;52.47;28.27;;;;;;;9.68;82.70;99156.56;5091343;28;20561;-74
2021/12/25 11:58:19;;;;;;;50.73;28.47;;;;;;;9.69;82.72;99162.53;5090630;28;20278;-74
2021/12/25 12:00:49;;;;;;;51.50;27.73;;;;;;;9.67;83.54;99160.00;5090525;28;20290;-73
2021/12/25 12:03:38;;;;;;;45.13;27.27;;;;;;;9.76;83.41;99156.31;5091175;28;20210;-74
2021/12/25 12:06:05;;;;;;;47.33;29.10;;;;;;;9.72;82.77;99152.19;5091251;28;20254;-74
2021/12/25 12:09:00;;;;;;;47.60;29.00;;;;;;;9.70;82.87;99148.81;5091517;28;20586;-74
2021/12/25 12:11:29;;;;;;;51.20;28.37;;;;;;;9.58;83.23;99131.28;5086516;28;20219;-74
2021/12/25 12:14:15;;;;;;;64.10;32.93;;;;;;;9.66;83.22;99142.16;5091057;28;20205;-74
2021/12/25 12:16:46;;;;;;;53.80;29.57;;;;;;;9.74;83.29;99140.19;5088021;28;20199;-73
2021/12/25 12:19:41;;;;;;;64.53;35.30;;;;;;;9.77;82.93;99134.97;5091179;28;20195;-74
2021/12/25 12:22:58;;;;;;;257.90;95.60;;;;;;;9.76;83.10;99128.16;5091312;28;20682;-74
2021/12/25 12:25:42;;;;;;;63.63;33.80;;;;;;;9.73;83.37;99118.00;5087181;28;20770;-74
2021/12/25 12:28:10;;;;;;;44.50;26.03;;;;;;;9.77;82.92;99124.72;5091104;28;20601;-74